createdAt,value
2019-04-01T00:01:10.461Z,9.20
2019-04-01T00:03:39.261Z,9.10
2019-04-01T00:06:07.974Z,9.00
2019-04-01T00:08:37.070Z,9.00
2019-04-01T00:11:06.497Z,9.00
2019-04-01T00:13:35.441Z,9.00
2019-04-01T00:16:05.086Z,9.00
2019-04-01T00:18:33.920Z,8.90
2019-04-01T00:21:03.221Z,8.90
2019-04-01T00:23:32.070Z,8.80
2019-04-01T00:26:00.890Z,8.80
2019-04-01T00:28:29.790Z,8.80
2019-04-01T00:30:58.781Z,8.80
2019-04-01T00:33:27.620Z,8.90
2019-04-01T00:35:56.592Z,8.90
2019-04-01T00:38:25.361Z,8.80
2019-04-01T00:40:54.332Z,8.80
2019-04-01T00:43:27.653Z,8.80
2019-04-01T00:45:58.180Z,8.70
2019-04-01T00:48:27.021Z,8.70
2019-04-01T00:50:55.831Z,8.70
2019-04-01T00:53:24.632Z,8.60
2019-04-01T00:55:53.671Z,8.70
2019-04-01T00:58:22.680Z,8.70
2019-04-01T01:00:51.660Z,8.60
2019-04-01T01:03:20.620Z,8.50
2019-04-01T01:05:49.451Z,8.40
2019-04-01T01:08:18.176Z,8.20
2019-04-01T01:10:47.091Z,8.20
2019-04-01T01:13:15.944Z,8.20
2019-04-01T01:15:44.842Z,8.30
2019-04-01T01:18:13.671Z,8.30
2019-04-01T01:20:42.842Z,8.40
2019-04-01T01:23:11.697Z,8.40
2019-04-01T01:25:40.701Z,8.40
2019-04-01T01:28:09.461Z,8.50
2019-04-01T01:30:38.373Z,8.50
2019-04-01T01:33:07.239Z,8.50
2019-04-01T01:35:36.261Z,8.60
2019-04-01T01:38:05.941Z,8.60
2019-04-01T01:40:35.001Z,8.60
2019-04-01T01:43:04.997Z,8.60
2019-04-01T01:45:33.930Z,8.50
2019-04-01T01:48:03.482Z,8.50
2019-04-01T01:50:32.441Z,8.50
2019-04-01T01:53:01.581Z,8.50
2019-04-01T01:55:30.371Z,8.40
2019-04-01T01:57:59.371Z,8.40
2019-04-01T02:00:29.071Z,8.30
2019-04-01T02:02:58.084Z,8.30
2019-04-01T02:05:26.973Z,8.20
2019-04-01T02:07:56.050Z,8.20
2019-04-01T02:10:24.990Z,8.20
2019-04-01T02:12:53.821Z,8.10
2019-04-01T02:15:22.520Z,8.10
2019-04-01T02:17:51.434Z,8.20
2019-04-01T02:20:20.280Z,8.20
2019-04-01T02:22:49.260Z,8.20
2019-04-01T02:25:18.041Z,8.20
2019-04-01T02:27:46.812Z,8.20
2019-04-01T02:30:15.623Z,8.20
2019-04-01T02:32:44.531Z,8.00
2019-04-01T02:35:13.397Z,8.10
2019-04-01T02:37:42.222Z,8.10
2019-04-01T02:40:11.032Z,8.10
2019-04-01T02:42:39.930Z,8.10
2019-04-01T02:45:08.892Z,8.10
2019-04-01T02:47:37.833Z,8.10
2019-04-01T02:50:07.361Z,8.10
2019-04-01T02:52:36.411Z,8.00
2019-04-01T02:55:07.357Z,8.10
2019-04-01T02:57:36.880Z,7.90
2019-04-01T03:00:06.225Z,8.00
2019-04-01T03:02:35.142Z,8.00
2019-04-01T03:05:05.571Z,8.00
2019-04-01T03:07:34.552Z,8.00
2019-04-01T03:10:04.998Z,7.90
2019-04-01T03:12:33.782Z,7.90
2019-04-01T03:15:03.215Z,8.00
2019-04-01T03:17:32.252Z,8.00
2019-04-01T03:20:01.072Z,8.00
2019-04-01T03:22:30.041Z,8.00
2019-04-01T03:24:58.864Z,8.00
2019-04-01T03:27:27.804Z,8.10
2019-04-01T03:29:56.700Z,8.10
2019-04-01T03:32:25.597Z,8.10
2019-04-01T03:34:54.501Z,8.20
2019-04-01T03:37:23.228Z,8.30
2019-04-01T03:39:52.223Z,8.30
2019-04-01T03:42:21.744Z,8.30
2019-04-01T03:44:54.774Z,8.40
2019-04-01T03:47:20.470Z,8.40
2019-04-01T03:49:49.350Z,8.40
2019-04-01T03:52:18.212Z,8.40
2019-04-01T03:54:46.866Z,8.50
2019-04-01T03:57:15.713Z,8.50
2019-04-01T03:59:44.672Z,8.50
2019-04-01T04:02:13.612Z,8.60
2019-04-01T04:04:42.612Z,8.60
2019-04-01T04:07:11.611Z,8.60
2019-04-01T04:09:40.379Z,8.60
2019-04-01T04:12:09.548Z,8.60
2019-04-01T04:14:38.362Z,8.50
2019-04-01T04:17:07.749Z,8.50
2019-04-01T04:19:36.630Z,8.50
2019-04-01T04:22:05.829Z,8.60
2019-04-01T04:24:34.781Z,8.60
2019-04-01T04:27:04.496Z,8.60
2019-04-01T04:29:33.371Z,8.60
2019-04-01T04:32:02.344Z,8.60
2019-04-01T04:34:31.241Z,8.70
2019-04-01T04:37:00.141Z,8.70
2019-04-01T04:39:29.137Z,8.70
2019-04-01T04:41:57.919Z,8.70
2019-04-01T04:44:26.788Z,8.70
2019-04-01T04:46:55.577Z,8.70
2019-04-01T04:49:24.342Z,8.80
2019-04-01T04:51:53.223Z,8.70
2019-04-01T04:54:22.191Z,8.80
2019-04-01T04:56:51.060Z,8.80
2019-04-01T04:59:20.051Z,8.90
2019-04-01T05:01:50.371Z,8.90
2019-04-01T05:04:19.361Z,8.90
2019-04-01T05:06:48.382Z,8.90
2019-04-01T05:09:17.202Z,8.90
2019-04-01T05:11:46.331Z,8.90
2019-04-01T05:14:15.090Z,9.00
2019-04-01T05:16:43.950Z,9.00
2019-04-01T05:19:12.751Z,9.00
2019-04-01T05:21:42.081Z,9.00
2019-04-01T05:24:11.330Z,9.00
2019-04-01T05:26:40.240Z,8.90
2019-04-01T05:29:08.984Z,9.00
2019-04-01T05:31:37.854Z,9.00
2019-04-01T05:34:06.824Z,9.00
2019-04-01T05:36:35.851Z,9.10
2019-04-01T05:39:06.800Z,9.20
2019-04-01T05:41:36.100Z,9.20
2019-04-01T05:44:05.903Z,9.30
2019-04-01T05:46:34.830Z,9.30
2019-04-01T05:49:04.809Z,9.40
2019-04-01T05:51:33.602Z,9.40
2019-04-01T05:54:02.831Z,9.50
2019-04-01T05:56:31.770Z,9.50
2019-04-01T05:59:00.810Z,9.50
2019-04-01T06:01:43.590Z,9.60
2019-04-01T06:04:12.640Z,9.70
2019-04-01T06:06:41.561Z,9.70
2019-04-01T06:09:10.352Z,9.70
2019-04-01T06:11:39.270Z,9.70
2019-04-01T06:14:08.420Z,9.70
2019-04-01T06:16:37.221Z,9.70
2019-04-01T06:19:06.467Z,9.70
2019-04-01T06:21:35.770Z,9.80
2019-04-01T06:24:05.421Z,9.90
2019-04-01T06:26:34.251Z,9.90
2019-04-01T06:29:03.874Z,9.90
2019-04-01T06:31:32.691Z,10.00
2019-04-01T06:34:01.591Z,10.00
2019-04-01T06:36:30.450Z,10.00
2019-04-01T06:38:59.320Z,10.10
2019-04-01T06:41:28.191Z,10.10
2019-04-01T06:43:57.120Z,10.20
2019-04-01T06:46:25.961Z,10.20
2019-04-01T06:48:54.740Z,10.20
2019-04-01T06:51:23.522Z,10.30
2019-04-01T06:53:52.500Z,10.30
2019-04-01T06:56:21.321Z,10.30
2019-04-01T06:58:50.112Z,10.40
2019-04-01T07:01:18.880Z,10.40
2019-04-01T07:03:47.680Z,10.50
2019-04-01T07:06:16.451Z,10.50
2019-04-01T07:08:45.380Z,10.60
2019-04-01T07:11:14.304Z,10.60
2019-04-01T07:13:43.171Z,10.70
2019-04-01T07:16:15.654Z,10.70
2019-04-01T07:18:42.610Z,10.70
2019-04-01T07:21:11.462Z,10.80
2019-04-01T07:23:40.200Z,10.80
2019-04-01T07:26:08.993Z,10.90
2019-04-01T07:28:37.810Z,10.90
2019-04-01T07:31:07.102Z,10.90
2019-04-01T07:33:36.061Z,10.90
2019-04-01T07:36:05.713Z,10.90
2019-04-01T07:38:34.651Z,11.00
2019-04-01T07:41:04.206Z,11.10
2019-04-01T07:43:33.300Z,11.20
2019-04-01T07:46:02.113Z,11.20
2019-04-01T07:48:30.902Z,11.30
2019-04-01T07:51:02.352Z,11.30
2019-04-01T07:53:31.351Z,11.40
2019-04-01T07:56:02.546Z,11.50
2019-04-01T07:58:30.711Z,11.50
2019-04-01T08:00:59.690Z,11.50
2019-04-01T08:03:28.690Z,11.40
2019-04-01T08:05:57.806Z,11.40
2019-04-01T08:08:26.770Z,11.30
2019-04-01T08:10:55.618Z,11.40
2019-04-01T08:13:24.411Z,11.40
2019-04-01T08:15:53.261Z,11.50
2019-04-01T08:18:22.272Z,11.40
2019-04-01T08:20:51.281Z,11.30
2019-04-01T08:23:20.443Z,11.30
2019-04-01T08:25:49.406Z,11.30
2019-04-01T08:28:18.231Z,11.30
2019-04-01T08:30:47.150Z,11.40
2019-04-01T08:33:16.145Z,11.50
2019-04-01T08:35:44.951Z,11.40
2019-04-01T08:38:13.814Z,11.40
2019-04-01T08:40:42.581Z,11.50
2019-04-01T08:43:11.620Z,11.50
2019-04-01T08:45:40.890Z,11.60
2019-04-01T08:48:09.659Z,11.70
2019-04-01T08:50:38.550Z,11.70
2019-04-01T08:53:07.344Z,11.80
2019-04-01T08:55:36.520Z,11.80
2019-04-01T08:58:06.125Z,11.90
2019-04-01T09:00:34.961Z,12.00
2019-04-01T09:03:04.877Z,12.10
2019-04-01T09:05:33.791Z,12.10
2019-04-01T09:08:21.881Z,12.20
2019-04-01T09:10:50.760Z,12.30
2019-04-01T09:13:19.661Z,12.20
2019-04-01T09:15:48.610Z,12.40
2019-04-01T09:18:17.520Z,12.40
2019-04-01T09:20:46.350Z,12.70
2019-04-01T09:23:15.191Z,12.90
2019-04-01T09:25:44.100Z,13.30
2019-04-01T09:28:12.900Z,13.70
2019-04-01T09:30:41.820Z,13.70
2019-04-01T09:33:10.540Z,13.70
2019-04-01T09:35:41.048Z,13.80
2019-04-01T09:38:10.334Z,14.20
2019-04-01T09:40:39.151Z,14.60
2019-04-01T09:43:07.842Z,14.80
2019-04-01T09:45:37.071Z,15.00
2019-04-01T09:48:07.381Z,15.30
2019-04-01T09:50:36.115Z,15.50
2019-04-01T09:53:05.294Z,15.50
2019-04-01T09:55:34.380Z,15.40
2019-04-01T09:58:04.160Z,15.60
2019-04-01T10:00:33.061Z,15.70
2019-04-01T10:03:01.920Z,15.70
2019-04-01T10:05:30.871Z,15.70
2019-04-01T10:07:59.800Z,15.90
2019-04-01T10:10:28.600Z,16.40
2019-04-01T10:12:57.551Z,16.50
2019-04-01T10:15:26.360Z,16.50
2019-04-01T10:17:55.312Z,16.50
2019-04-01T10:20:24.160Z,16.70
2019-04-01T10:22:53.080Z,16.80
2019-04-01T10:25:21.903Z,16.90
2019-04-01T10:27:51.171Z,17.10
2019-04-01T10:30:53.261Z,17.20
2019-04-01T10:33:53.042Z,17.30
2019-04-01T10:41:46.261Z,17.10
2019-04-01T10:44:15.151Z,17.20
2019-04-01T10:46:44.051Z,17.50
2019-04-01T10:49:12.876Z,17.70
2019-04-01T10:51:41.861Z,17.40
2019-04-01T10:54:10.708Z,17.50
2019-04-01T10:56:39.610Z,17.30
2019-04-01T10:59:08.371Z,17.20
2019-04-01T11:01:37.454Z,16.90
2019-04-01T11:04:06.578Z,16.50
2019-04-01T11:06:35.491Z,16.50
2019-04-01T11:09:06.582Z,16.40
2019-04-01T11:11:35.441Z,15.80
2019-04-01T11:14:05.306Z,15.30
2019-04-01T11:16:34.853Z,15.00
2019-04-01T11:19:04.355Z,14.90
2019-04-01T11:21:33.905Z,14.80
2019-04-01T11:24:07.376Z,15.40
2019-04-01T11:26:36.458Z,15.90
2019-04-01T11:29:05.303Z,16.00
2019-04-01T11:31:34.281Z,16.10
2019-04-01T11:34:04.124Z,16.10
2019-04-01T11:36:32.881Z,16.20
2019-04-01T11:39:01.830Z,16.20
2019-04-01T11:41:30.615Z,15.90
2019-04-01T11:43:59.539Z,16.60
2019-04-01T11:46:28.459Z,16.60
2019-04-01T11:48:57.367Z,16.30
2019-04-01T11:51:33.063Z,16.30
2019-04-01T11:53:56.771Z,16.20
2019-04-01T11:56:26.714Z,16.30
2019-04-01T11:58:56.937Z,16.30
2019-04-01T12:01:26.335Z,16.00
2019-04-01T12:03:55.210Z,16.40
2019-04-01T12:06:24.094Z,16.10
2019-04-01T12:08:53.080Z,16.00
2019-04-01T12:11:22.020Z,16.30
2019-04-01T12:13:50.793Z,16.60
2019-04-01T12:16:19.590Z,17.20
2019-04-01T12:18:48.321Z,17.60
2019-04-01T12:21:17.260Z,17.50
2019-04-01T12:23:46.040Z,17.50
2019-04-01T12:26:15.842Z,17.00
2019-04-01T12:28:45.370Z,16.70
2019-04-01T12:31:14.151Z,16.20
2019-04-01T12:33:42.971Z,16.00
2019-04-01T12:36:12.061Z,15.90
2019-04-01T12:38:41.101Z,15.60
2019-04-01T12:41:09.901Z,15.30
2019-04-01T12:43:38.730Z,15.30
2019-04-01T12:46:07.468Z,15.20
2019-04-01T12:48:36.491Z,14.90
2019-04-01T12:51:06.133Z,15.00
2019-04-01T12:53:35.021Z,15.00
2019-04-01T12:56:04.865Z,14.90
2019-04-01T12:58:33.820Z,14.90
2019-04-01T13:01:03.634Z,14.90
2019-04-01T13:03:33.000Z,14.90
2019-04-01T13:06:01.861Z,14.80
2019-04-01T13:08:30.851Z,14.60
2019-04-01T13:10:59.881Z,14.60
2019-04-01T13:13:28.720Z,14.50
2019-04-01T13:15:57.639Z,14.60
2019-04-01T13:18:26.410Z,14.60
2019-04-01T13:20:55.401Z,14.60
2019-04-01T13:23:24.510Z,14.70
2019-04-01T13:25:53.540Z,14.80
2019-04-01T13:28:22.390Z,14.90
2019-04-01T13:30:51.241Z,14.90
2019-04-01T13:33:20.160Z,14.80
2019-04-01T13:35:49.560Z,14.80
2019-04-01T13:38:18.560Z,14.80
2019-04-01T13:40:47.531Z,14.80
2019-04-01T13:43:17.050Z,14.90
2019-04-01T13:45:46.080Z,14.80
2019-04-01T13:48:14.881Z,14.80
2019-04-01T13:50:43.593Z,14.70
2019-04-01T13:53:12.431Z,14.70
2019-04-01T13:55:41.460Z,14.50
2019-04-01T13:58:10.936Z,14.50
2019-04-01T14:00:40.210Z,14.40
2019-04-01T14:03:12.106Z,14.30
2019-04-01T14:05:40.980Z,14.40
2019-04-01T14:08:10.040Z,14.50
2019-04-01T14:10:40.535Z,14.60
2019-04-01T14:13:09.101Z,14.60
2019-04-01T14:15:37.970Z,14.60
2019-04-01T14:18:06.947Z,14.60
2019-04-01T14:20:35.863Z,14.60
2019-04-01T14:23:05.528Z,14.60
2019-04-01T14:25:34.991Z,14.50
2019-04-01T14:28:04.995Z,14.50
2019-04-01T14:30:33.831Z,14.60
2019-04-01T14:33:03.114Z,14.60
2019-04-01T14:35:32.830Z,14.60
2019-04-01T14:38:01.731Z,14.60
2019-04-01T14:40:32.600Z,14.60
2019-04-01T14:43:01.021Z,14.60
2019-04-01T14:45:29.792Z,14.60
2019-04-01T14:47:59.010Z,14.80
2019-04-01T14:50:27.880Z,15.00
2019-04-01T14:52:56.835Z,15.10
2019-04-01T14:55:25.700Z,15.00
2019-04-01T14:57:54.981Z,15.00
2019-04-01T15:00:24.520Z,14.90
2019-04-01T15:02:53.601Z,14.80
2019-04-01T15:05:22.482Z,14.70
2019-04-01T15:07:51.440Z,14.80
2019-04-01T15:10:20.300Z,14.80
2019-04-01T15:13:04.020Z,14.90
2019-04-01T15:15:19.661Z,15.20
2019-04-01T15:17:48.500Z,15.20
2019-04-01T15:20:19.532Z,15.10
2019-04-01T15:22:48.411Z,14.90
2019-04-01T15:25:17.202Z,14.90
2019-04-01T15:27:46.130Z,14.90
2019-04-01T15:30:15.740Z,14.80
2019-04-01T15:32:44.565Z,14.80
2019-04-01T15:35:13.320Z,14.70
2019-04-01T15:37:42.353Z,14.70
2019-04-01T15:40:12.331Z,14.70
2019-04-01T15:42:41.211Z,14.60
2019-04-01T15:45:09.931Z,14.60
2019-04-01T15:47:38.884Z,14.60
2019-04-01T15:50:09.308Z,14.70
2019-04-01T15:52:38.332Z,14.60
2019-04-01T15:55:07.208Z,14.50
2019-04-01T15:57:36.111Z,14.50
2019-04-01T16:00:06.180Z,14.50
2019-04-01T16:02:35.670Z,14.50
2019-04-01T16:05:06.598Z,14.40
2019-04-01T16:07:35.459Z,14.40
2019-04-01T16:10:08.871Z,14.30
2019-04-01T16:12:37.710Z,14.30
2019-04-01T16:15:09.050Z,14.20
2019-04-01T16:17:38.161Z,14.10
2019-04-01T16:20:07.068Z,14.10
2019-04-01T16:22:36.051Z,14.00
2019-04-01T16:25:06.757Z,13.90
2019-04-01T16:27:35.712Z,13.80
2019-04-01T16:30:07.292Z,13.70
2019-04-01T16:32:35.570Z,13.60
2019-04-01T16:35:06.409Z,13.50
2019-04-01T16:37:35.440Z,13.60
2019-04-01T16:40:06.029Z,13.50
2019-04-01T16:42:35.480Z,13.40
2019-04-01T16:45:07.071Z,13.40
2019-04-01T16:47:36.220Z,13.20
2019-04-01T16:50:09.470Z,13.10
2019-04-01T16:52:38.391Z,13.00
2019-04-01T16:55:07.852Z,12.90
2019-04-01T16:57:36.743Z,12.90
2019-04-01T17:00:09.830Z,12.80
2019-04-01T17:02:39.640Z,12.70
2019-04-01T17:05:08.325Z,12.60
2019-04-01T17:07:37.191Z,12.60
2019-04-01T17:10:06.064Z,12.50
2019-04-01T17:12:34.971Z,12.40
2019-04-01T17:15:05.309Z,12.20
2019-04-01T17:17:34.231Z,12.20
2019-04-01T17:20:04.040Z,12.20
2019-04-01T17:22:33.632Z,12.10
2019-04-01T17:25:03.611Z,12.10
2019-04-01T17:27:32.901Z,12.10
2019-04-01T17:30:01.832Z,12.00
2019-04-01T17:32:31.261Z,11.90
2019-04-01T17:35:00.103Z,11.90
2019-04-01T17:37:29.153Z,11.80
2019-04-01T17:39:59.480Z,11.70
2019-04-01T17:42:28.384Z,11.80
2019-04-01T17:45:04.646Z,11.80
2019-04-01T17:47:35.370Z,11.80
2019-04-01T17:50:06.349Z,11.80
2019-04-01T17:52:35.570Z,11.80
2019-04-01T17:55:05.277Z,11.80
2019-04-01T17:57:34.561Z,11.80
2019-04-01T18:00:05.417Z,11.80
2019-04-01T18:02:35.177Z,11.80
2019-04-01T18:05:06.426Z,11.80
2019-04-01T18:07:36.221Z,11.80
2019-04-01T18:10:06.921Z,11.80
2019-04-01T18:12:36.641Z,11.90
2019-04-01T18:15:06.193Z,11.80
2019-04-01T18:17:35.583Z,11.70
2019-04-01T18:20:06.995Z,11.70
2019-04-01T18:22:36.031Z,11.70
2019-04-01T18:25:06.054Z,11.70
2019-04-01T18:27:35.021Z,11.70
2019-04-01T18:30:07.583Z,11.60
2019-04-01T18:32:36.961Z,11.60
2019-04-01T18:35:06.925Z,11.70
2019-04-01T18:37:35.770Z,11.70
2019-04-01T18:40:05.451Z,11.60
2019-04-01T18:42:34.187Z,11.60
2019-04-01T18:45:05.044Z,11.70
2019-04-01T18:47:34.071Z,11.60
2019-04-01T18:50:03.410Z,11.60
2019-04-01T18:52:32.751Z,11.60
2019-04-01T18:55:02.236Z,11.60
2019-04-01T18:57:32.301Z,11.50
2019-04-01T19:00:01.762Z,11.60
2019-04-01T19:02:31.222Z,11.40
2019-04-01T19:05:00.371Z,11.40
2019-04-01T19:07:29.372Z,11.50
2019-04-01T19:10:05.951Z,11.40
2019-04-01T19:12:28.212Z,11.40
2019-04-01T19:14:57.081Z,11.40
2019-04-01T19:17:26.053Z,11.40
2019-04-01T19:19:54.901Z,11.40
2019-04-01T19:22:23.810Z,11.40
2019-04-01T19:24:52.820Z,11.40
2019-04-01T19:27:22.149Z,11.30
2019-04-01T19:29:51.601Z,11.40
2019-04-01T19:32:20.556Z,11.30
2019-04-01T19:34:49.491Z,11.30
2019-04-01T19:37:18.403Z,11.20
2019-04-01T19:39:47.385Z,11.10
2019-04-01T19:42:17.934Z,11.10
2019-04-01T19:44:46.930Z,11.10
2019-04-01T19:47:15.671Z,11.10
2019-04-01T19:49:44.580Z,11.00
2019-04-01T19:52:13.461Z,11.00
2019-04-01T19:54:42.581Z,11.00
2019-04-01T19:57:11.431Z,11.00
2019-04-01T19:59:40.372Z,11.00
2019-04-01T20:02:09.687Z,10.90
2019-04-01T20:04:39.020Z,10.90
2019-04-01T20:07:07.841Z,10.80
2019-04-01T20:09:36.760Z,10.80
2019-04-01T20:12:06.046Z,10.70
2019-04-01T20:14:34.971Z,10.70
2019-04-01T20:17:04.793Z,10.60
2019-04-01T20:19:34.103Z,10.50
2019-04-01T20:22:04.160Z,10.40
2019-04-01T20:24:33.049Z,10.40
2019-04-01T20:27:01.850Z,10.30
2019-04-01T20:29:30.931Z,10.20
2019-04-01T20:31:59.851Z,10.00
2019-04-01T20:34:31.955Z,9.90
2019-04-01T20:37:00.213Z,9.80
2019-04-01T20:39:29.480Z,9.80
2019-04-01T20:41:58.211Z,9.80
2019-04-01T20:44:27.251Z,9.60
2019-04-01T20:46:56.392Z,9.50
2019-04-01T20:49:25.362Z,9.50
2019-04-01T20:51:54.401Z,9.40
2019-04-01T20:54:23.610Z,9.30
2019-04-01T20:56:52.520Z,9.30
2019-04-01T20:59:21.300Z,9.20
2019-04-01T21:01:50.292Z,9.10
2019-04-01T21:04:19.069Z,9.10
2019-04-01T21:06:48.060Z,9.10
2019-04-01T21:09:16.880Z,9.00
2019-04-01T21:11:45.791Z,8.90
2019-04-01T21:14:14.600Z,8.80
2019-04-01T21:16:44.702Z,8.70
2019-04-01T21:25:16.622Z,8.60
2019-04-01T21:27:45.812Z,8.50
2019-04-01T21:30:14.908Z,8.40
2019-04-01T21:32:44.350Z,8.40
2019-04-01T21:35:14.750Z,8.40
2019-04-01T21:37:44.158Z,8.30
2019-04-01T21:40:13.068Z,8.30
2019-04-01T21:42:43.274Z,8.30
2019-04-01T21:45:12.988Z,8.30
2019-04-01T21:47:42.090Z,8.30
2019-04-01T21:50:11.269Z,8.30
2019-04-01T21:52:40.068Z,8.20
2019-04-01T21:55:09.568Z,8.20
2019-04-01T21:57:38.849Z,8.10
2019-04-01T22:00:10.448Z,8.10
2019-04-01T22:02:40.691Z,8.10
2019-04-01T22:05:10.322Z,8.10
2019-04-01T22:07:40.029Z,8.10
2019-04-01T22:10:08.909Z,8.10
2019-04-01T22:12:38.308Z,8.10
2019-04-01T22:15:07.630Z,8.00
2019-04-01T22:17:37.469Z,8.00
2019-04-01T22:20:06.808Z,8.10
2019-04-01T22:22:36.142Z,8.10
2019-04-01T22:25:06.148Z,8.20
2019-04-01T22:27:35.068Z,8.10
2019-04-01T22:30:07.048Z,8.10
2019-04-01T22:32:36.189Z,8.10
2019-04-01T22:35:07.990Z,8.20
2019-04-01T22:37:37.201Z,8.20
2019-04-01T22:40:08.627Z,8.20
2019-04-01T22:42:37.789Z,8.20
2019-04-01T22:45:07.868Z,8.30
2019-04-01T22:47:37.289Z,8.30
2019-04-01T22:50:08.088Z,8.20
2019-04-01T22:52:41.895Z,8.30
2019-04-01T22:55:09.469Z,8.30
2019-04-01T22:57:38.368Z,8.30
2019-04-01T23:00:08.028Z,8.30
2019-04-01T23:02:37.028Z,8.30
2019-04-01T23:05:08.184Z,8.20
2019-04-01T23:07:37.508Z,8.20
2019-04-01T23:10:07.542Z,8.20
2019-04-01T23:12:36.328Z,8.30
2019-04-01T23:15:07.109Z,8.30
2019-04-01T23:17:38.306Z,8.30
2019-04-01T23:20:09.369Z,8.20
2019-04-01T23:22:38.269Z,8.20
2019-04-01T23:25:07.868Z,8.20
2019-04-01T23:27:36.696Z,8.20
2019-04-01T23:30:08.898Z,8.20
2019-04-01T23:32:38.188Z,8.20
2019-04-01T23:35:07.228Z,8.20
2019-04-01T23:37:38.079Z,8.20
2019-04-01T23:40:07.069Z,8.20
2019-04-01T23:42:37.947Z,8.10
2019-04-01T23:45:07.548Z,8.10
2019-04-01T23:47:36.856Z,8.10
2019-04-01T23:50:09.126Z,8.10
2019-04-01T23:52:38.810Z,8.00
2019-04-01T23:55:07.872Z,8.10
2019-04-01T23:57:37.252Z,8.20
